Time;durP1;ratioP1;P1;durP2;ratioP2;P2;SDS_P1;SDS_P2;PMS_P1;PMS_P2;Temp;Humidity;BMP_temperature;BMP_pressure;BME280_temperature;BME280_humidity;BME280_pressure;Samples;Min_cycle;Max_cycle;Signal;HPM_P1;HPM_P2
2024/03/27 00:01:10;;;;;;;14.88;4.13;;;;;;;;;;4957364;28;20058;-92
2024/03/27 00:03:39;;;;;;;16.25;4.90;;;;;;;;;;4956413;29;20066;-90
2024/03/27 00:06:09;;;;;;;12.93;4.07;;;;;;;;;;4937482;29;20051;-85
2024/03/27 00:08:38;;;;;;;17.83;3.70;;;;;;;;;;4956876;28;20043;-85
2024/03/27 00:11:06;;;;;;;8.75;3.10;;;;;;;;;;4941892;29;20051;-87
2024/03/27 00:13:34;;;;;;;13.60;3.78;;;;;;;;;;4942764;28;20093;-85
2024/03/27 00:16:03;;;;;;;10.65;4.07;;;;;;;;;;4960496;28;20411;-86
2024/03/27 00:18:32;;;;;;;7.80;3.90;;;;;;;;;;4961144;28;20051;-84
2024/03/27 00:21:00;;;;;;;13.30;3.72;;;;;;;;;;4976640;28;20490;-86
2024/03/27 00:23:30;;;;;;;12.90;4.07;;;;;;;;;;4944673;28;20055;-86
2024/03/27 00:25:58;;;;;;;16.85;5.40;;;;;;;;;;4977013;28;20050;-87
2024/03/27 00:28:27;;;;;;;15.02;6.90;;;;;;;;;;4961466;28;20046;-86
2024/03/27 00:30:55;;;;;;;14.50;6.22;;;;;;;;;;4963146;28;20054;-88
2024/03/27 00:33:23;;;;;;;13.85;4.63;;;;;;;;;;4966908;28;20055;-86
2024/03/27 00:35:59;;;;;;;11.90;4.72;;;;;;;;;;4973869;28;20047;-86
2024/03/27 00:38:29;;;;;;;15.07;4.32;;;;;;;;;;4957771;28;20059;-86
2024/03/27 00:40:57;;;;;;;11.27;4.85;;;;;;;;;;4965444;28;20062;-86
2024/03/27 00:43:26;;;;;;;13.52;4.80;;;;;;;;;;4941257;29;20448;-87
2024/03/27 00:45:55;;;;;;;17.20;5.22;;;;;;;;;;4956518;29;20047;-88
2024/03/27 00:51:21;;;;;;;14.57;4.78;;;;;;;;;;4941067;29;20521;-87
2024/03/27 00:53:50;;;;;;;12.70;5.45;;;;;;;;;;4956730;29;20418;-88
2024/03/27 00:56:19;;;;;;;14.65;3.83;;;;;;;;;;4939481;29;20063;-89
2024/03/27 00:58:47;;;;;;;12.25;4.82;;;;;;;;;;4955794;29;20043;-90
2024/03/27 01:01:15;;;;;;;12.57;4.00;;;;;;;;;;4939867;29;20047;-88
2024/03/27 01:03:45;;;;;;;15.00;3.72;;;;;;;;;;4955179;29;20501;-89
2024/03/27 01:06:13;;;;;;;13.57;3.85;;;;;;;;;;4939457;29;20058;-88
2024/03/27 01:08:42;;;;;;;18.40;5.20;;;;;;;;;;4955128;29;20044;-89
2024/03/27 01:11:10;;;;;;;13.32;3.70;;;;;;;;;;4971591;28;20043;-87
2024/03/27 01:13:38;;;;;;;10.73;3.13;;;;;;;;;;4940718;29;20051;-88
2024/03/27 01:16:06;;;;;;;13.52;3.78;;;;;;;;;;4924470;29;20059;-90
2024/03/27 01:18:35;;;;;;;13.20;3.50;;;;;;;;;;4954567;28;20055;-87
2024/03/27 01:21:03;;;;;;;8.18;3.05;;;;;;;;;;4924870;29;20175;-91
2024/03/27 01:23:32;;;;;;;8.27;3.10;;;;;;;;;;4955536;29;20051;-87
2024/03/27 01:26:04;;;;;;;16.17;3.95;;;;;;;;;;4940022;29;20422;-88
2024/03/27 01:28:33;;;;;;;16.70;3.22;;;;;;;;;;4956694;29;20502;-88
2024/03/27 01:31:01;;;;;;;10.00;3.38;;;;;;;;;;4943419;29;20055;-88
2024/03/27 01:33:30;;;;;;;13.23;3.55;;;;;;;;;;4938702;28;20058;-89
2024/03/27 01:35:58;;;;;;;11.13;3.53;;;;;;;;;;4962095;28;20434;-88
2024/03/27 01:38:27;;;;;;;11.50;3.05;;;;;;;;;;4960000;28;20062;-88
2024/03/27 01:40:56;;;;;;;9.55;3.60;;;;;;;;;;4976391;28;20490;-88
2024/03/27 01:43:24;;;;;;;9.68;3.25;;;;;;;;;;4960160;28;20050;-89
2024/03/27 01:45:53;;;;;;;10.50;3.55;;;;;;;;;;4958254;28;20055;-88
2024/03/27 01:48:22;;;;;;;16.50;3.78;;;;;;;;;;4976949;28;20434;-88
2024/03/27 01:50:54;;;;;;;5.75;3.08;;;;;;;;;;4959899;28;20059;-88
2024/03/27 01:53:23;;;;;;;10.60;3.47;;;;;;;;;;4976620;28;20398;-89
2024/03/27 01:55:51;;;;;;;11.02;3.20;;;;;;;;;;4959414;28;20042;-88
2024/03/27 01:58:21;;;;;;;11.57;3.17;;;;;;;;;;4977531;28;20046;-88
2024/03/27 02:00:49;;;;;;;11.32;2.90;;;;;;;;;;4959436;28;20057;-87
2024/03/27 02:03:18;;;;;;;8.73;3.30;;;;;;;;;;4958465;28;20061;-86
2024/03/27 02:05:47;;;;;;;7.65;2.75;;;;;;;;;;4975834;28;20070;-89
2024/03/27 02:08:16;;;;;;;12.80;3.33;;;;;;;;;;4992740;28;20058;-90
2024/03/27 02:10:44;;;;;;;17.42;2.88;;;;;;;;;;4974615;28;20055;-90
2024/03/27 02:13:12;;;;;;;11.77;3.42;;;;;;;;;;4958971;28;20047;-88
2024/03/27 02:15:40;;;;;;;13.35;3.45;;;;;;;;;;4974782;28;20053;-88
2024/03/27 02:18:08;;;;;;;8.48;3.03;;;;;;;;;;4958789;28;20047;-89
2024/03/27 02:20:41;;;;;;;9.38;3.25;;;;;;;;;;4974833;28;20058;-88
2024/03/27 02:23:15;;;;;;;6.85;3.47;;;;;;;;;;4958022;28;20047;-88
2024/03/27 02:25:58;;;;;;;15.35;3.60;;;;;;;;;;4974059;28;20047;-85
2024/03/27 02:28:27;;;;;;;10.73;3.30;;;;;;;;;;4974987;28;20113;-87
2024/03/27 02:30:55;;;;;;;7.82;2.88;;;;;;;;;;4973929;28;20050;-86
2024/03/27 02:33:24;;;;;;;11.48;2.97;;;;;;;;;;4974450;28;20046;-88
2024/03/27 02:35:52;;;;;;;12.70;3.40;;;;;;;;;;4957612;28;20501;-86
2024/03/27 02:38:23;;;;;;;12.05;3.33;;;;;;;;;;4973809;28;20070;-87
2024/03/27 02:40:51;;;;;;;8.55;3.13;;;;;;;;;;4973608;28;20485;-86
2024/03/27 02:43:20;;;;;;;9.32;3.10;;;;;;;;;;4974009;28;20046;-87
2024/03/27 02:45:48;;;;;;;10.75;3.30;;;;;;;;;;4957412;28;20051;-87
2024/03/27 02:48:18;;;;;;;9.90;3.72;;;;;;;;;;4958281;28;20070;-88
2024/03/27 02:50:46;;;;;;;8.95;3.63;;;;;;;;;;4973934;28;20051;-88
2024/03/27 02:53:14;;;;;;;15.60;4.60;;;;;;;;;;4975287;28;20055;-88
2024/03/27 02:55:42;;;;;;;14.68;3.85;;;;;;;;;;4974378;28;20454;-87
2024/03/27 02:58:11;;;;;;;12.00;3.65;;;;;;;;;;4973962;28;20485;-87
2024/03/27 03:00:39;;;;;;;10.73;3.92;;;;;;;;;;4989863;28;20054;-87
2024/03/27 03:03:07;;;;;;;24.83;3.92;;;;;;;;;;4973737;28;20398;-87
2024/03/27 03:05:35;;;;;;;8.93;3.65;;;;;;;;;;4957300;28;20058;-87
2024/03/27 03:08:09;;;;;;;8.48;3.17;;;;;;;;;;4973640;28;20050;-89
2024/03/27 03:10:39;;;;;;;8.77;3.88;;;;;;;;;;4973604;28;20047;-89
2024/03/27 03:13:07;;;;;;;12.82;3.22;;;;;;;;;;4972392;28;20047;-88
2024/03/27 03:15:35;;;;;;;12.73;3.45;;;;;;;;;;4972959;28;20054;-87
2024/03/27 03:18:03;;;;;;;15.35;4.00;;;;;;;;;;4973381;28;20050;-87
2024/03/27 03:20:32;;;;;;;10.13;3.22;;;;;;;;;;4973779;28;20043;-87
2024/03/27 03:23:00;;;;;;;13.32;4.05;;;;;;;;;;4973799;28;20054;-86
2024/03/27 03:25:28;;;;;;;9.05;3.28;;;;;;;;;;4972803;28;20059;-87
2024/03/27 03:27:56;;;;;;;9.23;3.70;;;;;;;;;;4957379;28;20390;-87
2024/03/27 03:30:25;;;;;;;13.23;4.55;;;;;;;;;;4974186;28;20050;-87
2024/03/27 03:32:53;;;;;;;10.52;3.50;;;;;;;;;;4973145;28;20042;-87
2024/03/27 03:35:21;;;;;;;8.63;3.47;;;;;;;;;;4957909;28;20066;-88
2024/03/27 03:37:49;;;;;;;11.82;3.40;;;;;;;;;;4973248;28;20051;-86
2024/03/27 03:40:17;;;;;;;9.40;4.15;;;;;;;;;;4973131;28;20057;-89
2024/03/27 03:42:46;;;;;;;9.85;3.15;;;;;;;;;;4974410;28;20054;-88
2024/03/27 03:45:14;;;;;;;8.30;3.83;;;;;;;;;;4976554;28;20509;-87
2024/03/27 03:47:43;;;;;;;9.02;3.25;;;;;;;;;;4977729;28;20069;-87
2024/03/27 03:50:11;;;;;;;11.10;3.33;;;;;;;;;;4977421;28;20058;-88
2024/03/27 03:52:39;;;;;;;14.90;3.30;;;;;;;;;;4977267;28;20039;-86
2024/03/27 03:55:07;;;;;;;7.75;3.53;;;;;;;;;;4979213;28;20043;-85
2024/03/27 03:57:35;;;;;;;10.90;3.30;;;;;;;;;;4979452;28;20043;-87
2024/03/27 04:00:04;;;;;;;10.98;3.13;;;;;;;;;;4977285;28;20055;-86
2024/03/27 04:02:33;;;;;;;8.50;3.10;;;;;;;;;;4974385;28;20058;-84
2024/03/27 04:05:01;;;;;;;10.77;3.72;;;;;;;;;;4980092;28;20055;-86
2024/03/27 04:07:29;;;;;;;11.52;3.33;;;;;;;;;;4995996;28;20031;-84
2024/03/27 04:09:57;;;;;;;10.45;3.45;;;;;;;;;;4991953;28;20038;-84
2024/03/27 04:12:25;;;;;;;13.68;4.05;;;;;;;;;;4979962;28;20043;-88
2024/03/27 04:14:54;;;;;;;15.30;4.53;;;;;;;;;;4958431;28;20058;-89
2024/03/27 04:17:23;;;;;;;8.98;3.58;;;;;;;;;;4974282;28;20494;-86
2024/03/27 04:19:51;;;;;;;15.80;4.10;;;;;;;;;;4974717;28;20050;-87
2024/03/27 04:22:23;;;;;;;10.82;3.42;;;;;;;;;;4974287;28;20042;-86
2024/03/27 04:24:52;;;;;;;10.02;3.53;;;;;;;;;;4974183;28;20050;-88
2024/03/27 04:27:20;;;;;;;6.85;4.10;;;;;;;;;;4974510;28;20046;-86
2024/03/27 04:29:53;;;;;;;10.40;3.20;;;;;;;;;;4974783;28;20066;-88
2024/03/27 04:32:21;;;;;;;10.40;3.25;;;;;;;;;;4976478;28;20062;-90
2024/03/27 04:34:49;;;;;;;10.45;3.35;;;;;;;;;;4960863;28;20055;-88
2024/03/27 04:37:18;;;;;;;9.18;3.72;;;;;;;;;;4975613;28;20054;-88
2024/03/27 04:39:46;;;;;;;7.55;3.42;;;;;;;;;;4960871;28;20062;-88
2024/03/27 04:42:17;;;;;;;12.90;3.25;;;;;;;;;;4960724;28;20046;-88
2024/03/27 04:44:45;;;;;;;8.80;3.22;;;;;;;;;;4961059;28;20043;-89
2024/03/27 04:47:13;;;;;;;9.18;3.38;;;;;;;;;;4977459;28;20398;-89
2024/03/27 04:49:41;;;;;;;9.68;2.97;;;;;;;;;;4961447;28;20058;-88
2024/03/27 04:52:09;;;;;;;10.98;3.80;;;;;;;;;;4975662;28;20051;-88
2024/03/27 04:54:37;;;;;;;14.73;3.55;;;;;;;;;;4960408;28;20054;-89
2024/03/27 04:57:06;;;;;;;15.43;4.22;;;;;;;;;;4960956;28;20061;-92
2024/03/27 04:59:34;;;;;;;15.05;3.28;;;;;;;;;;4977620;28;20061;-90
2024/03/27 05:02:03;;;;;;;8.15;3.08;;;;;;;;;;4976196;28;20046;-89
2024/03/27 05:04:31;;;;;;;11.57;3.83;;;;;;;;;;4976016;28;20039;-91
2024/03/27 05:06:59;;;;;;;10.30;3.42;;;;;;;;;;4976361;28;20043;-89
2024/03/27 05:09:27;;;;;;;22.42;3.60;;;;;;;;;;4976738;28;20066;-89
2024/03/27 05:11:56;;;;;;;7.65;3.60;;;;;;;;;;4975696;28;20058;-89
2024/03/27 05:14:24;;;;;;;11.95;3.78;;;;;;;;;;4976837;28;20049;-88
2024/03/27 05:16:52;;;;;;;10.48;4.10;;;;;;;;;;4975804;28;20051;-88
2024/03/27 05:19:20;;;;;;;8.30;3.75;;;;;;;;;;4959665;28;20054;-88
2024/03/27 05:21:48;;;;;;;18.08;4.28;;;;;;;;;;4975854;28;20046;-90
2024/03/27 05:24:20;;;;;;;9.60;4.03;;;;;;;;;;4959022;28;20062;-88
2024/03/27 05:26:51;;;;;;;13.07;4.93;;;;;;;;;;4976052;28;20406;-88
2024/03/27 05:29:20;;;;;;;10.32;3.80;;;;;;;;;;4959545;28;20062;-91
2024/03/27 05:31:50;;;;;;;10.18;4.20;;;;;;;;;;4975180;28;20054;-88
2024/03/27 05:34:18;;;;;;;7.60;3.47;;;;;;;;;;4958967;28;20055;-88
2024/03/27 05:36:47;;;;;;;6.65;3.05;;;;;;;;;;4975212;28;20046;-88
2024/03/27 05:39:15;;;;;;;13.02;4.30;;;;;;;;;;4976021;28;20046;-90
2024/03/27 05:41:43;;;;;;;14.88;4.03;;;;;;;;;;4959955;28;20054;-89
2024/03/27 05:44:12;;;;;;;7.75;3.60;;;;;;;;;;4961085;28;20062;-88
2024/03/27 05:46:46;;;;;;;11.05;3.53;;;;;;;;;;4959266;28;20061;-91
2024/03/27 05:49:14;;;;;;;9.20;3.78;;;;;;;;;;4959600;28;20405;-90
2024/03/27 05:51:43;;;;;;;13.43;4.18;;;;;;;;;;4975952;28;20062;-91
2024/03/27 05:54:12;;;;;;;10.00;3.60;;;;;;;;;;4974715;28;20050;-91
2024/03/27 05:56:40;;;;;;;10.77;3.90;;;;;;;;;;4977902;28;20043;-89
2024/03/27 05:59:09;;;;;;;10.13;3.65;;;;;;;;;;4961968;28;20062;-87
2024/03/27 06:01:37;;;;;;;7.95;3.47;;;;;;;;;;4978042;28;20051;-89
2024/03/27 06:04:05;;;;;;;10.98;4.10;;;;;;;;;;4975168;28;20039;-89
2024/03/27 06:06:33;;;;;;;10.35;4.10;;;;;;;;;;4974851;28;20398;-90
2024/03/27 06:09:03;;;;;;;9.55;3.92;;;;;;;;;;4980546;28;20047;-87
2024/03/27 06:11:32;;;;;;;7.03;3.35;;;;;;;;;;4976766;28;20486;-88
2024/03/27 06:14:00;;;;;;;13.90;3.67;;;;;;;;;;4958976;28;20946;-89
2024/03/27 06:16:28;;;;;;;9.23;3.45;;;;;;;;;;4975241;28;20047;-88
2024/03/27 06:18:57;;;;;;;7.03;3.85;;;;;;;;;;4959452;28;20062;-89
2024/03/27 06:21:25;;;;;;;13.90;3.90;;;;;;;;;;4977453;28;20047;-91
2024/03/27 06:23:54;;;;;;;12.10;4.00;;;;;;;;;;4945702;28;20062;-90
2024/03/27 06:26:22;;;;;;;7.97;3.40;;;;;;;;;;4976917;28;20050;-93
2024/03/27 06:28:50;;;;;;;10.25;3.92;;;;;;;;;;4978775;28;20046;-88
2024/03/27 06:31:19;;;;;;;12.27;3.17;;;;;;;;;;4960730;28;20502;-88
2024/03/27 06:33:47;;;;;;;11.13;3.67;;;;;;;;;;4961216;28;20405;-91
2024/03/27 06:36:15;;;;;;;12.73;3.45;;;;;;;;;;4977910;28;20051;-88
2024/03/27 06:38:43;;;;;;;10.80;3.47;;;;;;;;;;4975867;28;20050;-87
2024/03/27 06:41:12;;;;;;;7.88;3.33;;;;;;;;;;4976686;28;20061;-88
2024/03/27 06:43:40;;;;;;;11.00;4.15;;;;;;;;;;4977443;28;20047;-87
2024/03/27 06:46:08;;;;;;;8.52;3.60;;;;;;;;;;4975124;28;20038;-88
2024/03/27 06:48:43;;;;;;;11.07;3.78;;;;;;;;;;4974804;28;20054;-88
2024/03/27 06:51:12;;;;;;;7.70;3.60;;;;;;;;;;4973782;28;20050;-87
2024/03/27 06:53:40;;;;;;;7.30;3.75;;;;;;;;;;4957542;28;20050;-90
2024/03/27 06:56:08;;;;;;;7.07;2.72;;;;;;;;;;4973973;28;20062;-86
2024/03/27 06:58:36;;;;;;;10.13;3.85;;;;;;;;;;4973049;28;20039;-86
2024/03/27 07:01:05;;;;;;;11.40;3.65;;;;;;;;;;4973258;28;20497;-87
2024/03/27 07:03:34;;;;;;;11.75;3.50;;;;;;;;;;4958019;28;20050;-89
2024/03/27 07:06:03;;;;;;;8.65;3.33;;;;;;;;;;4973800;28;20042;-88
2024/03/27 07:08:31;;;;;;;9.70;3.47;;;;;;;;;;4958522;28;20042;-87
2024/03/27 07:11:05;;;;;;;8.05;3.25;;;;;;;;;;4957704;28;20058;-88
2024/03/27 07:13:33;;;;;;;15.13;3.80;;;;;;;;;;4975082;28;20049;-87
2024/03/27 07:16:03;;;;;;;10.73;4.05;;;;;;;;;;4957316;28;20053;-89
2024/03/27 07:18:31;;;;;;;15.63;3.60;;;;;;;;;;4974490;28;20042;-88
2024/03/27 07:20:59;;;;;;;11.63;3.20;;;;;;;;;;4958125;28;20054;-88
2024/03/27 07:23:27;;;;;;;7.32;3.33;;;;;;;;;;4973381;28;20051;-86
2024/03/27 07:25:56;;;;;;;8.73;3.28;;;;;;;;;;4957010;28;20050;-86
2024/03/27 07:28:24;;;;;;;8.20;3.40;;;;;;;;;;4973737;28;20054;-87
2024/03/27 07:30:53;;;;;;;9.60;3.42;;;;;;;;;;4973556;28;20062;-90
2024/03/27 07:33:21;;;;;;;9.40;3.33;;;;;;;;;;4973747;28;20051;-88
2024/03/27 07:35:49;;;;;;;7.30;3.88;;;;;;;;;;4973184;28;20069;-88
2024/03/27 07:38:17;;;;;;;7.53;3.83;;;;;;;;;;4972759;28;20051;-88
2024/03/27 07:40:46;;;;;;;11.02;3.92;;;;;;;;;;4964946;28;20051;-89
2024/03/27 07:43:15;;;;;;;6.57;3.80;;;;;;;;;;4954436;28;20055;-89
2024/03/27 07:45:44;;;;;;;7.68;3.25;;;;;;;;;;4954168;28;20059;-88
2024/03/27 07:48:13;;;;;;;9.30;3.15;;;;;;;;;;4954114;28;20047;-87
2024/03/27 07:50:41;;;;;;;6.80;3.13;;;;;;;;;;4937815;29;20051;-92
2024/03/27 07:53:09;;;;;;;10.13;3.75;;;;;;;;;;4953539;28;20123;-88
2024/03/27 07:55:40;;;;;;;8.60;3.22;;;;;;;;;;4961798;28;20066;-86
2024/03/27 07:58:08;;;;;;;9.80;3.55;;;;;;;;;;4957369;28;20051;-87
2024/03/27 08:00:37;;;;;;;8.43;3.63;;;;;;;;;;4973172;28;20051;-87
2024/03/27 08:03:05;;;;;;;11.82;3.50;;;;;;;;;;4957149;28;20051;-87
2024/03/27 08:05:35;;;;;;;8.73;3.70;;;;;;;;;;4972904;28;20051;-90
2024/03/27 08:08:03;;;;;;;8.55;3.95;;;;;;;;;;4973960;28;20374;-90
2024/03/27 08:10:32;;;;;;;7.70;3.35;;;;;;;;;;4956561;28;20054;-87
2024/03/27 08:13:00;;;;;;;10.63;3.33;;;;;;;;;;4957130;28;20219;-90
2024/03/27 08:15:28;;;;;;;7.88;3.47;;;;;;;;;;4973276;28;20058;-89
2024/03/27 08:17:57;;;;;;;8.82;3.67;;;;;;;;;;4973528;28;20055;-89
2024/03/27 08:20:26;;;;;;;8.75;3.25;;;;;;;;;;4973193;28;20054;-87
2024/03/27 08:22:54;;;;;;;8.20;3.50;;;;;;;;;;4973389;28;20047;-89
2024/03/27 08:25:22;;;;;;;7.38;3.03;;;;;;;;;;4972751;28;20055;-87
2024/03/27 08:27:50;;;;;;;11.32;3.70;;;;;;;;;;4972870;28;20055;-88
2024/03/27 08:30:20;;;;;;;9.82;3.75;;;;;;;;;;4976306;28;20058;-87
2024/03/27 08:32:49;;;;;;;13.50;3.55;;;;;;;;;;4976101;28;20046;-88
2024/03/27 08:35:17;;;;;;;10.88;3.40;;;;;;;;;;4976817;28;20046;-86
2024/03/27 08:37:45;;;;;;;14.43;4.97;;;;;;;;;;4960166;28;20405;-86
2024/03/27 08:40:13;;;;;;;9.68;3.42;;;;;;;;;;4976497;28;20051;-88
2024/03/27 08:42:42;;;;;;;8.20;3.13;;;;;;;;;;4973861;28;20051;-89
2024/03/27 08:45:12;;;;;;;10.85;3.13;;;;;;;;;;4940379;28;20462;-88
2024/03/27 08:47:40;;;;;;;7.07;3.38;;;;;;;;;;4968816;28;20046;-85
2024/03/27 08:50:12;;;;;;;6.75;3.03;;;;;;;;;;4973493;28;20054;-87
2024/03/27 08:52:40;;;;;;;10.20;3.03;;;;;;;;;;4956762;29;20050;-86
2024/03/27 08:55:09;;;;;;;10.32;3.47;;;;;;;;;;4964900;28;20046;-85
2024/03/27 08:57:37;;;;;;;6.50;3.05;;;;;;;;;;4975952;28;20053;-83
2024/03/27 09:00:08;;;;;;;5.10;2.67;;;;;;;;;;4960129;28;20051;-87
2024/03/27 09:02:37;;;;;;;7.30;3.83;;;;;;;;;;4959564;28;20390;-90
2024/03/27 09:05:05;;;;;;;7.13;2.85;;;;;;;;;;4976006;28;20051;-90
2024/03/27 09:07:35;;;;;;;6.80;3.00;;;;;;;;;;4959916;28;20402;-87
2024/03/27 09:10:04;;;;;;;8.27;3.35;;;;;;;;;;4976687;28;20038;-89
2024/03/27 09:12:32;;;;;;;9.07;3.05;;;;;;;;;;4974667;28;20066;-85
2024/03/27 09:15:01;;;;;;;8.88;2.88;;;;;;;;;;4959453;28;20066;-89
2024/03/27 09:17:29;;;;;;;8.50;3.38;;;;;;;;;;4975842;28;20058;-86
2024/03/27 09:19:57;;;;;;;14.57;3.80;;;;;;;;;;4975511;28;20058;-89
2024/03/27 09:22:26;;;;;;;9.85;3.42;;;;;;;;;;4959516;28;20061;-88
2024/03/27 09:24:57;;;;;;;5.93;3.47;;;;;;;;;;4958874;28;20445;-86
2024/03/27 09:27:26;;;;;;;9.98;3.50;;;;;;;;;;4975625;28;20405;-86
2024/03/27 09:29:54;;;;;;;5.88;2.92;;;;;;;;;;4975144;28;20039;-86
2024/03/27 09:32:23;;;;;;;9.63;3.20;;;;;;;;;;4974227;28;20050;-87
2024/03/27 09:34:53;;;;;;;8.65;3.17;;;;;;;;;;4958712;28;20058;-86
2024/03/27 09:37:22;;;;;;;10.65;4.88;;;;;;;;;;4958753;28;20408;-84
2024/03/27 09:39:50;;;;;;;11.98;4.38;;;;;;;;;;4975559;28;20043;-86
2024/03/27 09:42:21;;;;;;;11.15;3.22;;;;;;;;;;4958704;28;20046;-86
2024/03/27 09:44:50;;;;;;;7.70;3.17;;;;;;;;;;4975382;28;20065;-86
2024/03/27 09:47:19;;;;;;;7.45;2.88;;;;;;;;;;4959023;28;20043;-85
2024/03/27 09:49:49;;;;;;;7.72;2.97;;;;;;;;;;4968402;28;20077;-89
2024/03/27 09:52:19;;;;;;;11.75;3.00;;;;;;;;;;4973328;28;20051;-89
2024/03/27 09:54:48;;;;;;;9.05;2.88;;;;;;;;;;4965405;28;20038;-90
2024/03/27 09:57:16;;;;;;;7.10;3.22;;;;;;;;;;4966528;28;20043;-88
2024/03/27 09:59:45;;;;;;;9.38;3.90;;;;;;;;;;4939599;29;20047;-86
2024/03/27 10:02:13;;;;;;;9.20;3.10;;;;;;;;;;4939384;29;20051;-86
2024/03/27 10:04:41;;;;;;;7.03;3.08;;;;;;;;;;4956458;29;20062;-85
2024/03/27 10:07:09;;;;;;;5.22;2.70;;;;;;;;;;4926946;29;20051;-85
2024/03/27 10:09:37;;;;;;;13.93;3.05;;;;;;;;;;4942381;29;20070;-83
2024/03/27 10:12:05;;;;;;;5.93;3.28;;;;;;;;;;4949251;29;20062;-82
2024/03/27 10:14:34;;;;;;;11.38;2.70;;;;;;;;;;4965094;29;20058;-82
2024/03/27 10:17:03;;;;;;;8.35;2.85;;;;;;;;;;4948943;29;20051;-83
2024/03/27 10:19:31;;;;;;;11.40;3.25;;;;;;;;;;4958125;29;20487;-84
2024/03/27 10:21:59;;;;;;;14.93;3.40;;;;;;;;;;4940291;29;20070;-84
2024/03/27 10:24:28;;;;;;;11.75;3.88;;;;;;;;;;4954920;28;20047;-88
2024/03/27 10:26:56;;;;;;;17.55;4.97;;;;;;;;;;4954873;29;20414;-85
2024/03/27 10:29:25;;;;;;;13.60;3.85;;;;;;;;;;4955013;28;20055;-85
2024/03/27 10:31:54;;;;;;;14.18;4.05;;;;;;;;;;4938331;29;20073;-85
2024/03/27 10:34:22;;;;;;;10.40;3.47;;;;;;;;;;4939465;29;20059;-84
2024/03/27 10:36:50;;;;;;;11.30;3.38;;;;;;;;;;4938615;29;20051;-86
2024/03/27 10:39:21;;;;;;;14.55;3.65;;;;;;;;;;4954582;29;20051;-86
2024/03/27 10:41:52;;;;;;;18.27;2.97;;;;;;;;;;4954759;29;20043;-87
2024/03/27 10:44:20;;;;;;;11.65;3.90;;;;;;;;;;4955012;29;20406;-84
2024/03/27 10:46:53;;;;;;;14.75;3.95;;;;;;;;;;4954002;28;20055;-87
2024/03/27 10:49:24;;;;;;;17.10;3.63;;;;;;;;;;4964294;28;20051;-85
2024/03/27 10:51:53;;;;;;;9.27;3.38;;;;;;;;;;4946554;28;20054;-86
2024/03/27 10:54:24;;;;;;;7.55;3.28;;;;;;;;;;4951514;28;20054;-87
2024/03/27 10:56:53;;;;;;;13.73;3.38;;;;;;;;;;4948985;28;20047;-84
2024/03/27 10:59:21;;;;;;;7.65;3.42;;;;;;;;;;4926924;28;20442;-85
2024/03/27 11:02:00;;;;;;;9.48;3.00;;;;;;;;;;4971074;28;20149;-90
2024/03/27 11:04:32;;;;;;;5.78;2.75;;;;;;;;;;4942181;28;20042;-91
2024/03/27 11:07:02;;;;;;;11.07;3.17;;;;;;;;;;4937411;28;20055;-86
2024/03/27 11:09:30;;;;;;;11.18;3.28;;;;;;;;;;4949928;28;20050;-85
2024/03/27 11:12:00;;;;;;;13.35;3.20;;;;;;;;;;4967837;28;20043;-86
2024/03/27 11:14:28;;;;;;;7.60;2.70;;;;;;;;;;4969028;28;20043;-87
2024/03/27 11:17:02;;;;;;;8.80;3.25;;;;;;;;;;4954824;28;20035;-87
2024/03/27 11:19:34;;;;;;;9.27;3.30;;;;;;;;;;4952405;29;20054;-87
2024/03/27 11:22:03;;;;;;;;;;;;;;;;;;4954744;28;20402;-87
2024/03/27 11:24:31;;;;;;;10.73;2.85;;;;;;;;;;4936429;29;19926;-86
2024/03/27 11:27:29;;;;;;;10.70;2.80;;;;;;;;;;4957393;28;20039;-85
2024/03/27 11:30:01;;;;;;;7.30;2.53;;;;;;;;;;4955806;28;20043;-88
2024/03/27 11:32:39;;;;;;;5.80;2.63;;;;;;;;;;4960934;28;20047;-88
2024/03/27 11:35:09;;;;;;;5.30;2.83;;;;;;;;;;4959650;28;20050;-86
2024/03/27 11:37:37;;;;;;;4.80;2.40;;;;;;;;;;4970435;28;20054;-87
2024/03/27 11:40:06;;;;;;;6.85;3.08;;;;;;;;;;4957038;28;20039;-88
2024/03/27 11:42:37;;;;;;;9.05;3.13;;;;;;;;;;4965100;28;20047;-87
2024/03/27 11:45:06;;;;;;;11.15;4.30;;;;;;;;;;4961392;28;20046;-87
2024/03/27 11:47:34;;;;;;;7.38;3.00;;;;;;;;;;4964614;28;20295;-89
2024/03/27 11:50:11;;;;;;;8.43;2.70;;;;;;;;;;4962539;28;20519;-86
2024/03/27 11:52:39;;;;;;;4.47;2.58;;;;;;;;;;4966133;28;20498;-87
2024/03/27 11:55:07;;;;;;;5.78;2.42;;;;;;;;;;4937075;29;20051;-87
2024/03/27 11:57:37;;;;;;;6.20;2.55;;;;;;;;;;4954151;28;20046;-88
2024/03/27 12:00:12;;;;;;;6.78;2.65;;;;;;;;;;4948623;29;20054;-86
2024/03/27 12:02:40;;;;;;;6.78;2.40;;;;;;;;;;4951456;28;20043;-86
2024/03/27 12:05:09;;;;;;;4.72;2.17;;;;;;;;;;4974320;28;20050;-87
2024/03/27 12:07:38;;;;;;;5.32;2.17;;;;;;;;;;4940500;28;20525;-87
2024/03/27 12:10:09;;;;;;;4.75;2.00;;;;;;;;;;4941535;29;20058;-87
2024/03/27 12:12:37;;;;;;;5.97;2.42;;;;;;;;;;4965039;28;20043;-90
2024/03/27 12:15:07;;;;;;;7.18;2.40;;;;;;;;;;4945265;29;20048;-87
2024/03/27 12:17:41;;;;;;;4.68;1.80;;;;;;;;;;4946343;28;20427;-86
2024/03/27 12:20:14;;;;;;;10.63;2.42;;;;;;;;;;4960225;28;20047;-88
2024/03/27 12:22:45;;;;;;;4.55;1.95;;;;;;;;;;4959612;28;20062;-88
2024/03/27 12:25:13;;;;;;;8.57;2.00;;;;;;;;;;4972919;28;20054;-87
2024/03/27 12:27:42;;;;;;;8.20;3.25;;;;;;;;;;4960189;28;20406;-88
2024/03/27 12:30:18;;;;;;;5.75;2.20;;;;;;;;;;4960274;28;20059;-88
2024/03/27 12:32:47;;;;;;;6.07;1.88;;;;;;;;;;4976119;28;20043;-89
2024/03/27 12:35:16;;;;;;;7.45;2.22;;;;;;;;;;4976827;28;20038;-86
2024/03/27 12:37:45;;;;;;;5.22;1.52;;;;;;;;;;4977258;28;20498;-87
2024/03/27 12:40:13;;;;;;;3.88;2.10;;;;;;;;;;4959324;28;20523;-88
2024/03/27 12:42:41;;;;;;;4.72;2.10;;;;;;;;;;4975689;28;20043;-87
2024/03/27 12:45:10;;;;;;;3.58;1.38;;;;;;;;;;4953515;28;20414;-90
2024/03/27 12:47:38;;;;;;;12.30;1.58;;;;;;;;;;4955785;28;20058;-89
2024/03/27 12:50:07;;;;;;;3.35;1.58;;;;;;;;;;4953748;28;20055;-88
2024/03/27 12:52:39;;;;;;;2.72;1.17;;;;;;;;;;4973542;28;20043;-86
2024/03/27 12:55:07;;;;;;;3.13;1.67;;;;;;;;;;4966176;28;20498;-88
2024/03/27 12:57:35;;;;;;;4.20;1.10;;;;;;;;;;4961878;28;20055;-88
2024/03/27 13:00:09;;;;;;;5.18;1.27;;;;;;;;;;4972857;28;20046;-90
2024/03/27 13:02:42;;;;;;;2.38;1.10;;;;;;;;;;4963421;28;20047;-88
2024/03/27 13:05:10;;;;;;;1.73;0.88;;;;;;;;;;4939977;29;20047;-87
2024/03/27 13:07:39;;;;;;;1.88;0.90;;;;;;;;;;4965619;28;20054;-90
2024/03/27 13:10:07;;;;;;;2.17;1.40;;;;;;;;;;4946447;29;20078;-88
2024/03/27 13:12:36;;;;;;;5.20;1.20;;;;;;;;;;4945083;28;20046;-87
2024/03/27 13:15:05;;;;;;;8.23;3.35;;;;;;;;;;4970913;28;20081;-86
2024/03/27 13:17:34;;;;;;;1.70;0.82;;;;;;;;;;4974260;28;20059;-87
2024/03/27 13:20:06;;;;;;;3.17;1.40;;;;;;;;;;4961845;28;20051;-87
2024/03/27 13:22:35;;;;;;;5.18;0.63;;;;;;;;;;4974544;28;20042;-89
2024/03/27 13:25:04;;;;;;;1.42;0.85;;;;;;;;;;4956399;28;20054;-87
2024/03/27 13:27:32;;;;;;;1.60;1.20;;;;;;;;;;4955391;28;20438;-88
2024/03/27 13:30:02;;;;;;;6.07;1.30;;;;;;;;;;4971854;28;20039;-87
2024/03/27 13:32:31;;;;;;;9.93;1.30;;;;;;;;;;4974773;28;20065;-87
2024/03/27 13:35:00;;;;;;;5.50;1.15;;;;;;;;;;4964689;28;20039;-88
2024/03/27 13:37:28;;;;;;;1.60;0.90;;;;;;;;;;4954555;29;20043;-87
2024/03/27 13:39:56;;;;;;;2.20;1.10;;;;;;;;;;4955166;28;20051;-87
2024/03/27 13:42:24;;;;;;;1.85;0.70;;;;;;;;;;4956327;28;20047;-88
2024/03/27 13:44:53;;;;;;;0.60;0.43;;;;;;;;;;4960541;28;20076;-85
2024/03/27 13:47:21;;;;;;;1.15;0.50;;;;;;;;;;4944214;28;20058;-85
2024/03/27 13:49:49;;;;;;;1.95;0.90;;;;;;;;;;4956243;28;20055;-86
2024/03/27 13:52:18;;;;;;;5.05;1.00;;;;;;;;;;4968500;28;20445;-85
2024/03/27 13:54:46;;;;;;;1.90;0.50;;;;;;;;;;4955754;28;20043;-86
2024/03/27 13:57:19;;;;;;;0.98;0.50;;;;;;;;;;4961883;28;20598;-88
2024/03/27 13:59:48;;;;;;;1.27;0.75;;;;;;;;;;4967881;28;20413;-88
2024/03/27 14:02:16;;;;;;;6.70;0.93;;;;;;;;;;4961672;28;20517;-88
2024/03/27 14:04:45;;;;;;;2.97;0.75;;;;;;;;;;4961529;28;20050;-87
2024/03/27 14:07:14;;;;;;;1.60;0.80;;;;;;;;;;4942862;28;20055;-86
2024/03/27 14:09:42;;;;;;;2.22;0.52;;;;;;;;;;4964906;28;20047;-91
2024/03/27 14:12:10;;;;;;;5.72;1.55;;;;;;;;;;4964716;28;20053;-84
2024/03/27 14:14:39;;;;;;;3.67;1.30;;;;;;;;;;4944410;28;20047;-88
2024/03/27 14:17:07;;;;;;;1.98;1.00;;;;;;;;;;4971574;28;20058;-87
2024/03/27 14:19:37;;;;;;;4.05;1.23;;;;;;;;;;4972095;28;20049;-86
2024/03/27 14:22:06;;;;;;;2.17;0.77;;;;;;;;;;4961613;28;20055;-84
2024/03/27 14:24:34;;;;;;;8.38;1.42;;;;;;;;;;4952893;28;20055;-88
2024/03/27 14:27:07;;;;;;;2.35;0.80;;;;;;;;;;4968777;28;20065;-89
2024/03/27 14:29:35;;;;;;;1.38;0.47;;;;;;;;;;4959394;28;20387;-88
2024/03/27 14:32:05;;;;;;;5.80;1.13;;;;;;;;;;4957100;28;20058;-90
2024/03/27 14:34:33;;;;;;;1.30;0.60;;;;;;;;;;4944641;28;20513;-90
2024/03/27 14:37:01;;;;;;;2.35;0.63;;;;;;;;;;4968745;28;20043;-87
2024/03/27 14:39:29;;;;;;;1.80;0.70;;;;;;;;;;4941462;29;20054;-88
2024/03/27 14:41:59;;;;;;;0.90;0.60;;;;;;;;;;4938754;29;20050;-89
2024/03/27 14:44:27;;;;;;;1.00;0.50;;;;;;;;;;4962290;28;20050;-87
2024/03/27 14:46:55;;;;;;;0.95;0.57;;;;;;;;;;4944565;29;20537;-86
2024/03/27 14:49:23;;;;;;;1.33;0.43;;;;;;;;;;4955511;29;20046;-89
2024/03/27 14:51:52;;;;;;;3.78;1.23;;;;;;;;;;4943697;29;20058;-87